createdAt,value
2022-08-09T00:00:23.162Z,102588.13
2022-08-09T00:02:51.907Z,102588.19
2022-08-09T00:06:19.738Z,102566.38
2022-08-09T00:08:12.992Z,102584.03
2022-08-09T00:10:59.878Z,102585.91
2022-08-09T00:13:28.439Z,102580.72
2022-08-09T00:16:02.654Z,102563.44
2022-08-09T00:18:34.960Z,102588.19
2022-08-09T00:21:08.725Z,102591.88
2022-08-09T00:23:54.747Z,102590.25
2022-08-09T00:26:29.788Z,102594.84
2022-08-09T00:29:12.302Z,102591.56
2022-08-09T00:31:59.337Z,102584.53
2022-08-09T00:34:28.069Z,102590.81
2022-08-09T00:37:00.704Z,102588.63
2022-08-09T00:40:09.760Z,102595.81
2022-08-09T00:44:13.638Z,102600.28
2022-08-09T00:45:03.498Z,102612.03
2022-08-09T00:47:35.893Z,102555.25
2022-08-09T00:50:07.626Z,102608.69
2022-08-09T00:52:42.512Z,102601.78
2022-08-09T00:55:16.756Z,102602.03
2022-08-09T00:57:59.317Z,102602.94
2022-08-09T01:00:27.680Z,102608.44
2022-08-09T01:02:59.544Z,102611.22
2022-08-09T01:05:50.835Z,102573.91
2022-08-09T01:08:51.488Z,102618.75
2022-08-09T01:12:03.201Z,102612.75
2022-08-09T01:14:52.392Z,102612.97
2022-08-09T01:17:30.486Z,102612.19
2022-08-09T01:20:04.868Z,102613.34
2022-08-09T01:24:02.294Z,102615.91
2022-08-09T01:26:07.135Z,102625.75
2022-08-09T01:28:37.859Z,102623.22
2022-08-09T01:31:11.969Z,102609.44
2022-08-09T01:34:00.624Z,102626.16
2022-08-09T01:36:30.565Z,102626.19
2022-08-09T01:38:59.799Z,102620.06
2022-08-09T01:41:32.249Z,102627.28
2022-08-09T01:44:02.127Z,102627.38
2022-08-09T01:47:11.819Z,102620.50
2022-08-09T01:50:00.457Z,102609.25
2022-08-09T01:52:54.894Z,102633.06
2022-08-09T01:55:44.596Z,102621.59
2022-08-09T01:58:36.209Z,102621.69
2022-08-09T02:01:30.612Z,102573.72
2022-08-09T02:04:35.881Z,102591.28
2022-08-09T02:08:36.066Z,102611.41
2022-08-09T02:10:52.945Z,102623.88
2022-08-09T02:13:42.042Z,102619.53
2022-08-09T02:16:52.792Z,102626.69
2022-08-09T02:19:18.829Z,102631.16
2022-08-09T02:22:10.450Z,102595.44
2022-08-09T02:24:59.684Z,102636.69
2022-08-09T02:28:00.652Z,102636.72
2022-08-09T02:30:57.377Z,102636.81
2022-08-09T02:33:58.110Z,102634.25
2022-08-09T02:36:21.161Z,102620.19
2022-08-09T02:38:54.882Z,102632.59
2022-08-09T02:41:28.447Z,102616.16
2022-08-09T02:44:06.629Z,102639.00
2022-08-09T02:46:43.637Z,102648.88
2022-08-09T02:49:15.983Z,102640.94
2022-08-09T02:51:46.917Z,102643.78
2022-08-09T02:54:18.249Z,102642.91
2022-08-09T02:56:51.592Z,102649.09
2022-08-09T02:59:25.977Z,102623.66
2022-08-09T03:02:07.060Z,102646.50
2022-08-09T03:04:40.868Z,102582.66
2022-08-09T03:07:13.935Z,102642.19
2022-08-09T03:09:54.399Z,102642.13
2022-08-09T03:12:26.118Z,102639.50
2022-08-09T03:14:55.237Z,102639.56
2022-08-09T03:17:26.594Z,102645.81
2022-08-09T03:20:02.930Z,102638.88
2022-08-09T03:22:33.509Z,102625.84
2022-08-09T03:25:26.578Z,102610.25
2022-08-09T03:27:59.260Z,102634.53
2022-08-09T03:30:33.565Z,102660.13
2022-08-09T03:33:17.701Z,102645.31
2022-08-09T03:36:13.484Z,102635.47
2022-08-09T03:38:35.987Z,102650.34
2022-08-09T03:41:09.251Z,102654.75
2022-08-09T03:43:36.519Z,102650.34
2022-08-09T03:46:20.589Z,102655.63
2022-08-09T03:48:55.531Z,102650.38
2022-08-09T03:51:56.332Z,102659.91
2022-08-09T03:54:12.152Z,102662.59
2022-08-09T03:56:41.156Z,102667.00
2022-08-09T03:59:17.230Z,102661.63
2022-08-09T04:01:53.358Z,102657.97
2022-08-09T04:04:21.374Z,102662.38
2022-08-09T04:06:51.782Z,102660.56
2022-08-09T04:09:41.757Z,102634.06
2022-08-09T04:12:30.921Z,102648.88
2022-08-09T04:15:01.351Z,102645.22
2022-08-09T04:17:30.278Z,102649.53
2022-08-09T04:20:02.686Z,102649.44
2022-08-09T04:22:31.855Z,102637.13
2022-08-09T04:24:59.858Z,102650.97
2022-08-09T04:27:28.989Z,102655.28
2022-08-09T04:29:57.126Z,102633.09
2022-08-09T04:32:34.145Z,102596.31
2022-08-09T04:35:10.342Z,102624.84
2022-08-09T04:37:45.916Z,102636.88
2022-08-09T04:40:19.263Z,102641.16
2022-08-09T04:42:56.949Z,102644.47
2022-08-09T04:45:24.264Z,102646.03
2022-08-09T04:48:01.105Z,102637.88
2022-08-09T04:50:31.695Z,102649.16
2022-08-09T04:53:00.804Z,102647.16
2022-08-09T04:55:27.952Z,102638.19
2022-08-09T04:58:09.669Z,102637.91
2022-08-09T05:00:37.375Z,102640.34
2022-08-09T05:03:30.052Z,102640.13
2022-08-09T05:06:06.793Z,102660.34
2022-08-09T05:08:34.954Z,102651.25
2022-08-09T05:11:02.947Z,102649.31
2022-08-09T05:13:33.241Z,102646.44
2022-08-09T05:16:01.370Z,102614.66
2022-08-09T05:18:42.926Z,102646.00
2022-08-09T05:21:23.127Z,102636.09
2022-08-09T05:24:00.141Z,102647.31
2022-08-09T05:26:36.402Z,102629.59
2022-08-09T05:29:17.571Z,102644.19
2022-08-09T05:31:57.482Z,102635.06
2022-08-09T05:34:31.837Z,102618.19
2022-08-09T05:37:06.637Z,102632.63
2022-08-09T05:39:42.489Z,102629.66
2022-08-09T05:42:17.774Z,102625.78
2022-08-09T05:45:10.455Z,102621.00
2022-08-09T05:48:01.931Z,102622.50
2022-08-09T05:51:10.164Z,102628.34
2022-08-09T05:53:57.339Z,102623.72
2022-08-09T05:56:54.451Z,102631.16
2022-08-09T05:59:42.444Z,102637.91
2022-08-09T06:02:29.647Z,102635.84
2022-08-09T06:05:19.469Z,102634.56
2022-08-09T06:08:26.503Z,102634.00
2022-08-09T06:11:16.662Z,102628.25
2022-08-09T06:14:05.557Z,102630.56
2022-08-09T06:16:52.683Z,102624.09
2022-08-09T06:19:39.810Z,102641.25
2022-08-09T06:22:27.729Z,102635.38
2022-08-09T06:25:16.209Z,102618.38
2022-08-09T06:28:03.418Z,102629.91
2022-08-09T06:30:51.969Z,102633.00
2022-08-09T06:33:41.572Z,102628.47
2022-08-09T06:36:29.932Z,102630.19
2022-08-09T06:39:17.976Z,102635.00
2022-08-09T06:42:11.321Z,102639.78
2022-08-09T06:44:58.656Z,102630.53
2022-08-09T06:47:45.895Z,102628.13
2022-08-09T06:50:35.736Z,102638.16
2022-08-09T06:53:22.756Z,102585.94
2022-08-09T06:56:10.851Z,102639.94
2022-08-09T07:00:51.174Z,102628.56
2022-08-09T07:02:06.191Z,102598.56
2022-08-09T07:04:53.249Z,102614.59
2022-08-09T07:07:58.779Z,102619.44
2022-08-09T07:10:46.293Z,102639.19
2022-08-09T07:13:45.433Z,102627.22
2022-08-09T07:16:48.717Z,102635.63
2022-08-09T07:19:38.106Z,102643.16
2022-08-09T07:22:27.411Z,102631.94
2022-08-09T07:25:23.540Z,102628.84
2022-08-09T07:28:10.490Z,102639.03
2022-08-09T07:31:06.667Z,102628.66
2022-08-09T07:33:55.890Z,102635.19
2022-08-09T07:36:42.967Z,102635.66
2022-08-09T07:39:40.759Z,102624.56
2022-08-09T07:42:32.912Z,102629.34
2022-08-09T07:45:36.893Z,102613.25
2022-08-09T07:48:30.712Z,102622.53
2022-08-09T07:52:04.588Z,102635.13
2022-08-09T07:54:28.061Z,102633.75
2022-08-09T07:57:17.649Z,102614.19
2022-08-09T08:00:08.718Z,102635.78
2022-08-09T08:03:04.609Z,102632.63
2022-08-09T08:05:57.565Z,102640.25
2022-08-09T08:09:03.218Z,102629.94
2022-08-09T08:12:24.679Z,102634.81
2022-08-09T08:14:58.430Z,102638.03
2022-08-09T08:17:54.989Z,102633.06
2022-08-09T08:20:46.042Z,102635.41
2022-08-09T08:23:34.967Z,102616.78
2022-08-09T08:26:26.372Z,102626.75
2022-08-09T08:29:14.115Z,102624.75
2022-08-09T08:32:06.033Z,102636.03
2022-08-09T08:34:55.424Z,102602.44
2022-08-09T08:38:00.040Z,102639.94
2022-08-09T08:40:53.533Z,102634.19
2022-08-09T08:43:40.547Z,102635.75
2022-08-09T08:46:41.379Z,102632.94
2022-08-09T08:49:47.805Z,102638.75
2022-08-09T08:52:58.940Z,102631.16
2022-08-09T08:55:48.300Z,102627.56
2022-08-09T08:58:36.222Z,102625.75
2022-08-09T09:01:35.424Z,102640.31
2022-08-09T09:04:37.801Z,102629.31
2022-08-09T09:07:36.830Z,102628.84
2022-08-09T09:10:30.544Z,102634.94
2022-08-09T09:13:18.689Z,102632.94
2022-08-09T09:16:07.022Z,102639.97
2022-08-09T09:19:15.705Z,102624.72
2022-08-09T09:22:26.817Z,102638.44
2022-08-09T09:26:02.413Z,102629.06
2022-08-09T09:29:03.107Z,102621.44
2022-08-09T09:32:03.382Z,102614.75
2022-08-09T09:34:44.738Z,102613.50
2022-08-09T09:37:48.373Z,102614.88
2022-08-09T09:40:35.331Z,102619.59
2022-08-09T09:43:22.389Z,102612.69
2022-08-09T09:49:49.957Z,102562.38
2022-08-09T09:52:53.465Z,102612.22
2022-08-09T09:55:41.210Z,102610.22
2022-08-09T09:58:29.466Z,102602.72
2022-08-09T10:01:30.992Z,102601.53
2022-08-09T10:04:37.549Z,102604.50
2022-08-09T10:07:25.682Z,102607.44
2022-08-09T10:10:14.723Z,102604.97
2022-08-09T10:13:13.573Z,102603.22
2022-08-09T10:16:57.752Z,102603.22
2022-08-09T10:19:21.850Z,102593.69
2022-08-09T10:22:10.776Z,102552.59
2022-08-09T10:24:59.692Z,102590.63
2022-08-09T10:27:57.198Z,102582.47
2022-08-09T10:34:04.558Z,102580.00
2022-08-09T10:36:09.600Z,102588.00
2022-08-09T10:38:56.141Z,102574.84
2022-08-09T10:41:27.927Z,102574.19
2022-08-09T10:44:01.525Z,102577.44
2022-08-09T10:47:04.149Z,102578.44
2022-08-09T10:50:03.567Z,102566.28
2022-08-09T10:52:55.691Z,102574.84
2022-08-09T10:55:24.445Z,102566.22
2022-08-09T10:57:56.051Z,102562.31
2022-08-09T11:00:36.762Z,102566.56
2022-08-09T11:03:49.748Z,102549.91
2022-08-09T11:06:44.858Z,102551.69
2022-08-09T11:09:36.757Z,102534.78
2022-08-09T11:12:40.225Z,102537.78
2022-08-09T11:15:41.890Z,102532.88
2022-08-09T11:19:09.957Z,102534.22
2022-08-09T11:22:21.598Z,102528.31
2022-08-09T11:25:36.306Z,102529.06
2022-08-09T11:28:56.518Z,102523.50
2022-08-09T11:32:05.649Z,102527.06
2022-08-09T11:35:03.331Z,102524.22
2022-08-09T11:37:51.480Z,102504.84
2022-08-09T11:40:53.077Z,102522.16
2022-08-09T11:43:45.321Z,102515.34
2022-08-09T11:46:33.655Z,102510.53
2022-08-09T11:49:28.203Z,102512.31
2022-08-09T11:52:57.122Z,102516.88
2022-08-09T11:55:53.908Z,102508.72
2022-08-09T11:58:50.455Z,102512.44
2022-08-09T12:02:34.094Z,102508.47
2022-08-09T12:04:46.495Z,102498.81
2022-08-09T12:07:34.436Z,102511.91
2022-08-09T12:10:38.475Z,102496.69
2022-08-09T12:14:07.101Z,102498.16
2022-08-09T12:16:39.952Z,102503.25
2022-08-09T12:19:13.179Z,102497.56
2022-08-09T12:21:50.406Z,102488.28
2022-08-09T12:24:24.385Z,102495.44
2022-08-09T12:28:59.389Z,102497.16
2022-08-09T12:30:01.910Z,102508.06
2022-08-09T12:32:44.266Z,102493.47
2022-08-09T12:35:17.015Z,102495.31
2022-08-09T12:37:51.779Z,102495.72
2022-08-09T12:40:24.479Z,102491.47
2022-08-09T12:42:53.363Z,102479.84
2022-08-09T12:45:33.557Z,102488.69
2022-08-09T12:48:20.441Z,102479.09
2022-08-09T12:50:56.265Z,102461.09
2022-08-09T12:53:37.778Z,102493.00
2022-08-09T12:56:39.982Z,102493.63
2022-08-09T12:59:20.239Z,102499.94
2022-08-09T13:01:59.313Z,102487.34
2022-08-09T13:04:37.507Z,102486.50
2022-08-09T13:07:19.442Z,102479.34
2022-08-09T13:10:07.685Z,102488.53
2022-08-09T13:13:09.705Z,102484.19
2022-08-09T13:16:15.089Z,102472.06
2022-08-09T13:18:53.508Z,102485.13
2022-08-09T13:22:35.901Z,102478.03
2022-08-09T13:24:59.089Z,102475.63
2022-08-09T13:27:40.192Z,102462.69
2022-08-09T13:30:50.787Z,102470.53
2022-08-09T13:33:11.487Z,102473.06
2022-08-09T13:36:39.758Z,102463.47
2022-08-09T13:38:54.256Z,102469.00
2022-08-09T13:41:46.924Z,102474.66
2022-08-09T13:44:00.776Z,102476.13
2022-08-09T13:47:16.780Z,102465.91
2022-08-09T13:49:19.414Z,102471.88
2022-08-09T13:51:52.355Z,102451.97
2022-08-09T13:54:59.380Z,102465.97
2022-08-09T13:57:53.078Z,102467.91
2022-08-09T14:00:50.440Z,102468.47
2022-08-09T14:04:03.702Z,102465.19
2022-08-09T14:06:47.087Z,102464.59
2022-08-09T14:09:34.885Z,102457.34
2022-08-09T14:12:24.158Z,102463.25
2022-08-09T14:16:02.077Z,102460.56
2022-08-09T14:18:19.988Z,102409.63
2022-08-09T14:21:20.319Z,102456.25
2022-08-09T14:24:18.738Z,102452.75
2022-08-09T14:27:20.596Z,102451.16
2022-08-09T14:30:36.596Z,102460.25
2022-08-09T14:32:34.962Z,102446.06
2022-08-09T14:35:06.715Z,102447.03
2022-08-09T14:37:41.176Z,102448.97
2022-08-09T14:40:38.729Z,102434.78
2022-08-09T14:43:27.529Z,102434.22
2022-08-09T14:46:58.196Z,102421.41
2022-08-09T14:50:01.526Z,102413.09
2022-08-09T14:52:50.673Z,102413.09
2022-08-09T14:55:37.944Z,102425.31
2022-08-09T14:58:29.930Z,102410.50
2022-08-09T15:01:17.264Z,102419.56
2022-08-09T15:04:07.898Z,102406.16
2022-08-09T15:06:56.801Z,102424.78
2022-08-09T15:10:07.411Z,102418.91
2022-08-09T15:12:51.631Z,102418.56
2022-08-09T15:15:39.696Z,102362.28
2022-08-09T15:18:31.263Z,102413.94
2022-08-09T15:21:55.400Z,102405.59
2022-08-09T15:24:27.060Z,102391.94
2022-08-09T15:27:14.610Z,102425.09
2022-08-09T15:30:58.688Z,102361.19
2022-08-09T15:33:09.452Z,102407.00
2022-08-09T15:36:05.767Z,102376.25
2022-08-09T15:38:53.105Z,102398.66
2022-08-09T15:41:47.085Z,102364.97
2022-08-09T15:44:37.427Z,102395.13
2022-08-09T15:47:47.150Z,102351.66
2022-08-09T15:50:34.530Z,102386.22
2022-08-09T15:54:03.829Z,102392.31
2022-08-09T15:56:34.036Z,102378.53
2022-08-09T15:59:20.988Z,102345.28
2022-08-09T16:02:07.977Z,102397.28
2022-08-09T16:05:02.465Z,102387.09
2022-08-09T16:07:51.383Z,102383.09
2022-08-09T16:10:55.444Z,102361.88
2022-08-09T16:14:03.718Z,102358.19
2022-08-09T16:16:50.215Z,102334.91
2022-08-09T16:19:49.087Z,102377.91
2022-08-09T16:22:48.890Z,102366.66
2022-08-09T16:25:40.399Z,102368.91
2022-08-09T16:28:28.313Z,102363.81
2022-08-09T16:31:16.282Z,102363.38
2022-08-09T16:33:43.973Z,102356.22
2022-08-09T16:36:18.406Z,102336.28
2022-08-09T16:38:46.340Z,102360.66
2022-08-09T16:41:24.720Z,102359.16
2022-08-09T16:44:06.854Z,102350.72
2022-08-09T16:46:35.898Z,102336.09
2022-08-09T16:49:13.225Z,102368.16
2022-08-09T16:51:54.027Z,102367.81
2022-08-09T16:54:25.684Z,102342.91
2022-08-09T16:56:55.141Z,102337.94
2022-08-09T16:59:23.532Z,102353.84
2022-08-09T17:01:53.053Z,102354.41
2022-08-09T17:04:28.248Z,102339.00
2022-08-09T17:08:41.281Z,102348.31
2022-08-09T17:09:46.702Z,102360.69
2022-08-09T17:12:15.343Z,102314.16
2022-08-09T17:14:47.930Z,102321.72
2022-08-09T17:17:26.903Z,102355.25
2022-08-09T17:20:28.319Z,102347.69
2022-08-09T17:22:50.645Z,102344.44
2022-08-09T17:25:20.458Z,102341.81
2022-08-09T17:27:54.596Z,102334.13
2022-08-09T17:30:28.363Z,102324.72
2022-08-09T17:33:01.361Z,102332.84
2022-08-09T17:35:34.899Z,102327.75
2022-08-09T17:38:24.497Z,102325.38
2022-08-09T17:40:49.523Z,102317.75
2022-08-09T17:43:33.997Z,102313.81
2022-08-09T17:46:06.676Z,102165.28
2022-08-09T17:48:38.710Z,102328.75
2022-08-09T17:51:17.635Z,102291.50
2022-08-09T17:54:10.246Z,102312.94
2022-08-09T17:57:03.002Z,102300.16
2022-08-09T17:59:54.938Z,102293.31
2022-08-09T18:02:59.102Z,102271.53
2022-08-09T18:05:52.931Z,102300.53
2022-08-09T18:08:41.377Z,102311.25
2022-08-09T18:11:29.061Z,102306.81
2022-08-09T18:14:16.198Z,102309.94
2022-08-09T18:17:03.385Z,102321.78
2022-08-09T18:20:55.955Z,102292.88
2022-08-09T18:22:57.385Z,102315.94
2022-08-09T18:25:52.731Z,102298.50
2022-08-09T18:30:41.447Z,102301.97
2022-08-09T18:31:55.477Z,102300.31
2022-08-09T18:34:43.517Z,102301.31
2022-08-09T18:37:47.206Z,102304.09
2022-08-09T18:40:36.768Z,102301.72
2022-08-09T18:43:24.165Z,102306.91
2022-08-09T18:46:51.472Z,102313.38
2022-08-09T18:49:19.656Z,102316.19
2022-08-09T18:52:06.785Z,102310.13
2022-08-09T18:54:57.520Z,102310.31
2022-08-09T18:57:42.689Z,102301.13
2022-08-09T19:00:19.107Z,102278.28
2022-08-09T19:02:51.384Z,102306.72
2022-08-09T19:05:41.362Z,102302.28
2022-08-09T19:08:10.089Z,102301.41
2022-08-09T19:10:39.948Z,102302.47
2022-08-09T19:13:20.726Z,102294.59
2022-08-09T19:16:01.601Z,102294.69
2022-08-09T19:18:33.886Z,102289.38
2022-08-09T19:21:03.504Z,102284.09
2022-08-09T19:24:33.356Z,102294.19
2022-08-09T19:26:29.123Z,102296.91
2022-08-09T19:29:01.265Z,102288.13
2022-08-09T19:31:30.381Z,102286.41
2022-08-09T19:33:58.287Z,102284.69
2022-08-09T19:36:30.958Z,102265.59
2022-08-09T19:39:01.074Z,102284.88
2022-08-09T19:41:32.959Z,102284.97
2022-08-09T19:44:03.701Z,102286.81
2022-08-09T19:46:35.205Z,102281.50
2022-08-09T19:50:08.711Z,102285.94
2022-08-09T19:51:55.813Z,102288.72
2022-08-09T19:54:27.287Z,102281.72
2022-08-09T19:56:55.766Z,102266.22
2022-08-09T19:59:57.529Z,102262.63
2022-08-09T20:02:17.101Z,102278.44
2022-08-09T20:04:59.526Z,102250.72
2022-08-09T20:07:56.817Z,102274.88
2022-08-09T20:10:17.549Z,102279.50
2022-08-09T20:12:46.056Z,102273.22
2022-08-09T20:16:32.972Z,102274.19
2022-08-09T20:18:00.903Z,102277.09
2022-08-09T20:20:28.028Z,102281.53
2022-08-09T20:22:56.282Z,102280.66
2022-08-09T20:25:24.354Z,102268.44
2022-08-09T20:27:52.818Z,102278.03
2022-08-09T20:30:23.764Z,102257.94
2022-08-09T20:32:52.812Z,102270.91
2022-08-09T20:35:21.626Z,102277.19
2022-08-09T20:38:18.895Z,102268.31
2022-08-09T20:40:36.321Z,102273.72
2022-08-09T20:43:18.898Z,102268.31
2022-08-09T20:45:59.419Z,102260.31
2022-08-09T20:48:30.895Z,102233.66
2022-08-09T20:51:00.029Z,102259.44
2022-08-09T20:53:36.481Z,102232.72
2022-08-09T20:56:06.493Z,102259.66
2022-08-09T20:58:36.440Z,102257.03
2022-08-09T21:01:33.327Z,102199.66
2022-08-09T21:05:48.912Z,102247.13
2022-08-09T21:06:44.381Z,102248.09
2022-08-09T21:09:14.102Z,102251.66
2022-08-09T21:14:31.184Z,102245.59
2022-08-09T21:17:00.423Z,102243.84
2022-08-09T21:20:19.396Z,102243.94
2022-08-09T21:22:36.272Z,102242.31
2022-08-09T21:25:21.194Z,102238.75
2022-08-09T21:27:52.270Z,102216.53
2022-08-09T21:30:22.303Z,102220.56
2022-08-09T21:33:11.278Z,102232.63
2022-08-09T21:36:03.490Z,102184.75
2022-08-09T21:38:57.356Z,102228.06
2022-08-09T21:42:04.871Z,102195.50
2022-08-09T21:44:53.207Z,102214.13
2022-08-09T21:47:40.369Z,102215.75
2022-08-09T21:50:36.146Z,102210.34
2022-08-09T21:53:40.834Z,102196.00
2022-08-09T21:56:43.594Z,102194.25
2022-08-09T21:59:43.039Z,102192.53
2022-08-09T22:02:36.412Z,102196.09
2022-08-09T22:05:36.866Z,102192.75
2022-08-09T22:08:26.670Z,102193.59
2022-08-09T22:12:06.238Z,102139.00
2022-08-09T22:14:22.963Z,102191.00
2022-08-09T22:17:14.094Z,102194.56
2022-08-09T22:20:01.319Z,102175.31
2022-08-09T22:22:49.666Z,102185.59
2022-08-09T22:26:05.557Z,102183.09
2022-08-09T22:28:53.786Z,102174.03
2022-08-09T22:31:44.672Z,102160.94
2022-08-09T22:34:45.752Z,102160.53
2022-08-09T22:37:46.322Z,102135.44
2022-08-09T22:40:34.199Z,102160.75
2022-08-09T22:44:02.605Z,102133.72
2022-08-09T22:48:14.552Z,102145.84
2022-08-09T22:49:36.834Z,102121.97
2022-08-09T22:52:28.257Z,102085.78
2022-08-09T22:55:22.590Z,102131.69
2022-08-09T22:58:09.943Z,102134.06
2022-08-09T23:01:07.537Z,102125.25
2022-08-09T23:04:03.331Z,102101.56
2022-08-09T23:06:52.028Z,102112.50
2022-08-09T23:09:39.317Z,102106.25
2022-08-09T23:12:26.452Z,102063.13
2022-08-09T23:15:13.524Z,102114.56
2022-08-09T23:18:00.474Z,102113.69
2022-08-09T23:20:47.645Z,102110.09
2022-08-09T23:23:34.477Z,102100.59
2022-08-09T23:26:22.586Z,102100.41
2022-08-09T23:29:09.851Z,102089.97
2022-08-09T23:31:57.444Z,102072.00
2022-08-09T23:34:44.534Z,102108.38
2022-08-09T23:37:31.713Z,102102.13
2022-08-09T23:40:18.689Z,102101.28
2022-08-09T23:43:05.966Z,102083.06
2022-08-09T23:45:53.113Z,102106.88
2022-08-09T23:48:40.299Z,102112.34
2022-08-09T23:51:27.241Z,102106.00
2022-08-09T23:54:14.809Z,102071.03
2022-08-09T23:57:04.907Z,102087.28
2022-08-09T23:59:51.060Z,102089.97
